sensor_id;sensor_type;location;lat;lon;timestamp;P1;P2;P0
67376;PMS7003;54261;46.086;6.588;2023-07-13T00:01:47;5.33;5.00;4.00
67376;PMS7003;54261;46.086;6.588;2023-07-13T00:06:53;3.67;3.67;3.67
67376;PMS7003;54261;46.086;6.588;2023-07-13T00:11:55;4.00;4.00;3.00
67376;PMS7003;54261;46.086;6.588;2023-07-13T00:16:59;3.00;3.00;2.00
67376;PMS7003;54261;46.086;6.588;2023-07-13T00:22:02;4.00;4.00;3.00
67376;PMS7003;54261;46.086;6.588;2023-07-13T00:27:04;4.00;4.00;3.00
67376;PMS7003;54261;46.086;6.588;2023-07-13T00:32:06;4.33;4.33;4.00
67376;PMS7003;54261;46.086;6.588;2023-07-13T00:37:10;3.33;3.33;2.33
67376;PMS7003;54261;46.086;6.588;2023-07-13T00:42:12;1.00;1.00;1.00
67376;PMS7003;54261;46.086;6.588;2023-07-13T00:47:14;4.00;4.00;3.00
67376;PMS7003;54261;46.086;6.588;2023-07-13T00:52:16;3.33;3.33;3.00
67376;PMS7003;54261;46.086;6.588;2023-07-13T00:57:19;5.33;3.67;2.67
67376;PMS7003;54261;46.086;6.588;2023-07-13T01:02:23;3.33;3.33;3.00
67376;PMS7003;54261;46.086;6.588;2023-07-13T01:07:25;6.00;6.00;4.33
67376;PMS7003;54261;46.086;6.588;2023-07-13T01:12:31;5.33;5.33;4.33
67376;PMS7003;54261;46.086;6.588;2023-07-13T01:17:33;4.00;4.00;3.33
67376;PMS7003;54261;46.086;6.588;2023-07-13T01:22:36;4.00;4.00;3.00
67376;PMS7003;54261;46.086;6.588;2023-07-13T01:27:37;4.67;4.67;4.00
67376;PMS7003;54261;46.086;6.588;2023-07-13T01:32:43;5.33;5.33;3.00
67376;PMS7003;54261;46.086;6.588;2023-07-13T01:37:45;4.00;4.00;3.00
67376;PMS7003;54261;46.086;6.588;2023-07-13T01:42:49;5.67;5.67;4.33
67376;PMS7003;54261;46.086;6.588;2023-07-13T01:47:54;4.67;4.67;4.00
67376;PMS7003;54261;46.086;6.588;2023-07-13T01:52:56;7.33;6.67;4.00
67376;PMS7003;54261;46.086;6.588;2023-07-13T01:57:58;6.00;6.00;5.00
67376;PMS7003;54261;46.086;6.588;2023-07-13T02:03:00;4.33;4.00;4.00
67376;PMS7003;54261;46.086;6.588;2023-07-13T02:08:02;6.67;6.00;5.00
67376;PMS7003;54261;46.086;6.588;2023-07-13T02:13:06;6.00;6.00;4.00
67376;PMS7003;54261;46.086;6.588;2023-07-13T02:18:08;4.33;4.33;3.00
67376;PMS7003;54261;46.086;6.588;2023-07-13T02:23:11;6.00;6.00;4.00
67376;PMS7003;54261;46.086;6.588;2023-07-13T02:28:13;4.00;4.00;3.33
67376;PMS7003;54261;46.086;6.588;2023-07-13T02:33:15;5.00;5.00;4.00
67376;PMS7003;54261;46.086;6.588;2023-07-13T02:38:17;4.33;4.33;3.33
67376;PMS7003;54261;46.086;6.588;2023-07-13T02:43:18;7.00;7.00;5.00
67376;PMS7003;54261;46.086;6.588;2023-07-13T02:48:22;5.00;5.00;3.00
67376;PMS7003;54261;46.086;6.588;2023-07-13T02:53:25;6.00;5.00;3.33
67376;PMS7003;54261;46.086;6.588;2023-07-13T02:58:27;5.00;5.00;4.00
67376;PMS7003;54261;46.086;6.588;2023-07-13T03:03:29;5.00;5.00;4.00
67376;PMS7003;54261;46.086;6.588;2023-07-13T03:08:31;4.00;4.00;4.00
67376;PMS7003;54261;46.086;6.588;2023-07-13T03:13:33;5.00;4.00;3.00
67376;PMS7003;54261;46.086;6.588;2023-07-13T03:18:38;4.33;4.33;3.33
67376;PMS7003;54261;46.086;6.588;2023-07-13T03:23:43;6.00;4.00;3.00
67376;PMS7003;54261;46.086;6.588;2023-07-13T03:28:45;7.00;6.00;4.67
67376;PMS7003;54261;46.086;6.588;2023-07-13T03:33:51;6.00;5.67;4.00
67376;PMS7003;54261;46.086;6.588;2023-07-13T03:38:55;5.00;5.00;4.33
67376;PMS7003;54261;46.086;6.588;2023-07-13T03:44:03;5.00;5.00;4.00
67376;PMS7003;54261;46.086;6.588;2023-07-13T03:49:05;5.67;5.67;3.67
67376;PMS7003;54261;46.086;6.588;2023-07-13T03:54:07;6.33;6.00;4.00
67376;PMS7003;54261;46.086;6.588;2023-07-13T03:59:09;4.33;4.00;3.00
67376;PMS7003;54261;46.086;6.588;2023-07-13T04:04:11;4.00;4.00;4.00
67376;PMS7003;54261;46.086;6.588;2023-07-13T04:09:13;6.67;6.67;5.67
67376;PMS7003;54261;46.086;6.588;2023-07-13T04:14:16;3.00;3.00;3.00
67376;PMS7003;54261;46.086;6.588;2023-07-13T04:19:18;3.33;3.33;3.00
67376;PMS7003;54261;46.086;6.588;2023-07-13T04:24:20;4.33;4.33;4.00
67376;PMS7003;54261;46.086;6.588;2023-07-13T04:29:22;4.67;4.67;3.33
67376;PMS7003;54261;46.086;6.588;2023-07-13T04:34:24;5.00;5.00;4.00
67376;PMS7003;54261;46.086;6.588;2023-07-13T04:39:26;5.00;5.00;4.33
67376;PMS7003;54261;46.086;6.588;2023-07-13T04:44:27;6.00;5.00;4.00
67376;PMS7003;54261;46.086;6.588;2023-07-13T04:49:29;5.33;4.00;3.00
67376;PMS7003;54261;46.086;6.588;2023-07-13T04:54:31;4.67;4.67;4.00
67376;PMS7003;54261;46.086;6.588;2023-07-13T04:59:33;6.00;5.67;4.33
67376;PMS7003;54261;46.086;6.588;2023-07-13T05:04:36;5.00;5.00;4.00
67376;PMS7003;54261;46.086;6.588;2023-07-13T05:09:37;6.67;6.67;4.67
67376;PMS7003;54261;46.086;6.588;2023-07-13T05:14:40;7.00;6.00;5.00
67376;PMS7003;54261;46.086;6.588;2023-07-13T05:19:42;7.00;6.00;5.00
67376;PMS7003;54261;46.086;6.588;2023-07-13T05:24:45;4.33;3.33;2.00
67376;PMS7003;54261;46.086;6.588;2023-07-13T05:29:46;7.00;6.00;5.00
67376;PMS7003;54261;46.086;6.588;2023-07-13T05:34:48;8.00;8.00;5.33
67376;PMS7003;54261;46.086;6.588;2023-07-13T05:39:50;2.67;2.67;2.33
67376;PMS7003;54261;46.086;6.588;2023-07-13T05:44:52;5.33;5.33;3.67
67376;PMS7003;54261;46.086;6.588;2023-07-13T05:49:54;4.33;4.33;3.67
67376;PMS7003;54261;46.086;6.588;2023-07-13T05:54:56;5.00;5.00;4.00
67376;PMS7003;54261;46.086;6.588;2023-07-13T05:59:58;4.67;4.67;3.67
67376;PMS7003;54261;46.086;6.588;2023-07-13T06:05:00;4.67;4.67;3.00
67376;PMS7003;54261;46.086;6.588;2023-07-13T06:10:02;4.00;4.00;2.33
67376;PMS7003;54261;46.086;6.588;2023-07-13T06:15:04;5.00;5.00;4.00
67376;PMS7003;54261;46.086;6.588;2023-07-13T06:20:06;5.67;5.67;5.00
67376;PMS7003;54261;46.086;6.588;2023-07-13T06:25:09;7.33;7.33;5.33
67376;PMS7003;54261;46.086;6.588;2023-07-13T06:30:11;6.67;6.00;4.00
67376;PMS7003;54261;46.086;6.588;2023-07-13T06:35:13;7.00;7.00;7.00
67376;PMS7003;54261;46.086;6.588;2023-07-13T06:40:15;7.33;7.00;6.00
67376;PMS7003;54261;46.086;6.588;2023-07-13T06:45:18;8.67;7.67;5.00
67376;PMS7003;54261;46.086;6.588;2023-07-13T06:50:20;8.33;7.33;6.00
67376;PMS7003;54261;46.086;6.588;2023-07-13T06:55:22;8.33;7.33;5.33
67376;PMS7003;54261;46.086;6.588;2023-07-13T07:00:24;9.00;8.67;6.00
67376;PMS7003;54261;46.086;6.588;2023-07-13T07:05:25;6.67;6.67;5.00
67376;PMS7003;54261;46.086;6.588;2023-07-13T07:10:28;9.00;9.00;7.00
67376;PMS7003;54261;46.086;6.588;2023-07-13T07:15:31;11.67;10.33;7.00
67376;PMS7003;54261;46.086;6.588;2023-07-13T07:20:33;7.67;7.67;7.00
67376;PMS7003;54261;46.086;6.588;2023-07-13T07:25:35;9.00;9.00;7.33
67376;PMS7003;54261;46.086;6.588;2023-07-13T07:30:46;8.00;8.00;6.00
67376;PMS7003;54261;46.086;6.588;2023-07-13T07:35:52;2.67;2.67;2.67
67376;PMS7003;54261;46.086;6.588;2023-07-13T07:40:57;3.67;3.67;3.67
67376;PMS7003;54261;46.086;6.588;2023-07-13T07:46:02;5.00;5.00;4.00
67376;PMS7003;54261;46.086;6.588;2023-07-13T07:51:04;6.00;6.00;4.00
67376;PMS7003;54261;46.086;6.588;2023-07-13T07:56:06;6.67;6.67;4.67
67376;PMS7003;54261;46.086;6.588;2023-07-13T08:01:28;8.33;7.33;6.33
67376;PMS7003;54261;46.086;6.588;2023-07-13T08:06:33;5.67;5.67;4.67
67376;PMS7003;54261;46.086;6.588;2023-07-13T08:11:38;6.00;6.00;5.67
67376;PMS7003;54261;46.086;6.588;2023-07-13T08:16:43;6.00;6.00;5.00
67376;PMS7003;54261;46.086;6.588;2023-07-13T08:21:44;9.00;7.67;6.33
67376;PMS7003;54261;46.086;6.588;2023-07-13T08:26:46;5.67;5.67;4.67
67376;PMS7003;54261;46.086;6.588;2023-07-13T08:31:48;4.33;4.33;4.00
67376;PMS7003;54261;46.086;6.588;2023-07-13T08:36:50;5.67;5.33;5.00
67376;PMS7003;54261;46.086;6.588;2023-07-13T08:41:53;5.00;5.00;3.67
67376;PMS7003;54261;46.086;6.588;2023-07-13T08:46:59;5.00;5.00;3.67
67376;PMS7003;54261;46.086;6.588;2023-07-13T08:52:06;6.00;6.00;4.33
67376;PMS7003;54261;46.086;6.588;2023-07-13T08:57:19;6.00;6.00;3.00
67376;PMS7003;54261;46.086;6.588;2023-07-13T09:23:35;6.67;5.67;4.67
67376;PMS7003;54261;46.086;6.588;2023-07-13T09:28:48;4.67;4.33;3.33
67376;PMS7003;54261;46.086;6.588;2023-07-13T09:33:54;4.00;3.00;2.33
67376;PMS7003;54261;46.086;6.588;2023-07-13T09:39:22;2.67;2.67;2.00
67376;PMS7003;54261;46.086;6.588;2023-07-13T09:44:33;3.67;3.67;2.67
67376;PMS7003;54261;46.086;6.588;2023-07-13T09:49:36;1.67;1.67;1.67
67376;PMS7003;54261;46.086;6.588;2023-07-13T09:54:39;4.00;4.00;3.67
67376;PMS7003;54261;46.086;6.588;2023-07-13T09:59:43;2.67;2.67;2.33
67376;PMS7003;54261;46.086;6.588;2023-07-13T10:04:53;3.33;2.67;1.67
67376;PMS7003;54261;46.086;6.588;2023-07-13T10:10:00;2.00;2.00;2.00
67376;PMS7003;54261;46.086;6.588;2023-07-13T10:15:04;7.00;7.00;5.00
67376;PMS7003;54261;46.086;6.588;2023-07-13T10:20:25;1.67;1.67;1.67
67376;PMS7003;54261;46.086;6.588;2023-07-13T10:25:32;2.00;2.00;1.67
67376;PMS7003;54261;46.086;6.588;2023-07-13T10:30:38;2.00;2.00;2.00
67376;PMS7003;54261;46.086;6.588;2023-07-13T10:35:43;3.00;2.33;1.67
67376;PMS7003;54261;46.086;6.588;2023-07-13T10:40:55;2.00;2.00;2.00
67376;PMS7003;54261;46.086;6.588;2023-07-13T10:45:58;2.67;2.00;1.00
67376;PMS7003;54261;46.086;6.588;2023-07-13T10:51:03;1.00;1.00;1.00
67376;PMS7003;54261;46.086;6.588;2023-07-13T11:01:15;1.33;1.33;1.00
67376;PMS7003;54261;46.086;6.588;2023-07-13T11:16:42;1.00;1.00;1.00
67376;PMS7003;54261;46.086;6.588;2023-07-13T11:27:15;2.00;2.00;1.67
67376;PMS7003;54261;46.086;6.588;2023-07-13T11:32:37;2.00;1.00;1.00
67376;PMS7003;54261;46.086;6.588;2023-07-13T11:37:39;1.00;1.00;1.00
67376;PMS7003;54261;46.086;6.588;2023-07-13T11:42:41;1.00;1.00;1.00
67376;PMS7003;54261;46.086;6.588;2023-07-13T11:47:43;1.00;1.00;1.00
67376;PMS7003;54261;46.086;6.588;2023-07-13T11:52:45;0.00;0.00;0.00
67376;PMS7003;54261;46.086;6.588;2023-07-13T11:57:57;2.00;1.33;0.67
67376;PMS7003;54261;46.086;6.588;2023-07-13T12:03:00;1.00;1.00;1.00
67376;PMS7003;54261;46.086;6.588;2023-07-13T12:08:10;1.00;1.00;0.00
67376;PMS7003;54261;46.086;6.588;2023-07-13T12:13:24;1.67;1.00;1.00
67376;PMS7003;54261;46.086;6.588;2023-07-13T12:18:29;2.00;2.00;2.00
67376;PMS7003;54261;46.086;6.588;2023-07-13T12:23:33;2.00;2.00;1.33
67376;PMS7003;54261;46.086;6.588;2023-07-13T12:28:51;1.00;1.00;1.00
67376;PMS7003;54261;46.086;6.588;2023-07-13T12:39:15;2.00;2.00;1.00
67376;PMS7003;54261;46.086;6.588;2023-07-13T12:44:29;1.00;1.00;1.00
67376;PMS7003;54261;46.086;6.588;2023-07-13T12:49:33;1.00;1.00;1.00
67376;PMS7003;54261;46.086;6.588;2023-07-13T12:54:39;2.33;1.00;1.00
67376;PMS7003;54261;46.086;6.588;2023-07-13T12:59:52;0.67;0.67;0.00
67376;PMS7003;54261;46.086;6.588;2023-07-13T13:04:55;1.00;1.00;1.00
67376;PMS7003;54261;46.086;6.588;2023-07-13T13:09:58;1.00;1.00;1.00
67376;PMS7003;54261;46.086;6.588;2023-07-13T13:15:00;2.33;2.00;1.00
67376;PMS7003;54261;46.086;6.588;2023-07-13T13:20:05;1.00;1.00;0.00
67376;PMS7003;54261;46.086;6.588;2023-07-13T13:25:20;1.00;1.00;0.00
67376;PMS7003;54261;46.086;6.588;2023-07-13T13:30:23;0.00;0.00;0.00
67376;PMS7003;54261;46.086;6.588;2023-07-13T13:35:25;0.33;0.33;0.33
67376;PMS7003;54261;46.086;6.588;2023-07-13T13:40:28;0.00;0.00;0.00
67376;PMS7003;54261;46.086;6.588;2023-07-13T13:45:32;1.00;1.00;1.00
67376;PMS7003;54261;46.086;6.588;2023-07-13T13:50:34;0.00;0.00;0.00
67376;PMS7003;54261;46.086;6.588;2023-07-13T13:55:36;0.67;0.67;0.00
67376;PMS7003;54261;46.086;6.588;2023-07-13T14:00:37;3.00;0.00;0.00
67376;PMS7003;54261;46.086;6.588;2023-07-13T14:05:43;0.33;0.33;0.33
67376;PMS7003;54261;46.086;6.588;2023-07-13T14:10:46;1.00;1.00;1.00
67376;PMS7003;54261;46.086;6.588;2023-07-13T14:15:50;1.00;1.00;0.00
67376;PMS7003;54261;46.086;6.588;2023-07-13T14:20:54;1.33;1.00;0.00
67376;PMS7003;54261;46.086;6.588;2023-07-13T14:25:56;0.00;0.00;0.00
67376;PMS7003;54261;46.086;6.588;2023-07-13T14:30:57;0.00;0.00;0.00
67376;PMS7003;54261;46.086;6.588;2023-07-13T14:35:59;0.00;0.00;0.00
67376;PMS7003;54261;46.086;6.588;2023-07-13T14:41:01;0.00;0.00;0.00
67376;PMS7003;54261;46.086;6.588;2023-07-13T14:46:03;0.25;0.25;0.25
67376;PMS7003;54261;46.086;6.588;2023-07-13T14:51:07;0.25;0.25;0.00
67376;PMS7003;54261;46.086;6.588;2023-07-13T14:56:12;0.75;0.25;0.00
67376;PMS7003;54261;46.086;6.588;2023-07-13T15:01:14;0.00;0.00;0.00
67376;PMS7003;54261;46.086;6.588;2023-07-13T15:06:18;2.00;1.00;0.25
67376;PMS7003;54261;46.086;6.588;2023-07-13T15:11:20;0.25;0.25;0.25
67376;PMS7003;54261;46.086;6.588;2023-07-13T15:16:24;0.00;0.00;0.00
67376;PMS7003;54261;46.086;6.588;2023-07-13T15:21:27;0.00;0.00;0.00
67376;PMS7003;54261;46.086;6.588;2023-07-13T15:26:36;0.00;0.00;0.00
67376;PMS7003;54261;46.086;6.588;2023-07-13T15:31:40;0.25;0.00;0.00
67376;PMS7003;54261;46.086;6.588;2023-07-13T15:36:42;0.00;0.00;0.00
67376;PMS7003;54261;46.086;6.588;2023-07-13T15:41:45;0.00;0.00;0.00
67376;PMS7003;54261;46.086;6.588;2023-07-13T15:46:49;0.00;0.00;0.00
67376;PMS7003;54261;46.086;6.588;2023-07-13T15:51:51;0.00;0.00;0.00
67376;PMS7003;54261;46.086;6.588;2023-07-13T15:56:55;0.00;0.00;0.00
67376;PMS7003;54261;46.086;6.588;2023-07-13T16:01:57;1.25;1.25;1.00
67376;PMS7003;54261;46.086;6.588;2023-07-13T16:06:59;0.00;0.00;0.00
67376;PMS7003;54261;46.086;6.588;2023-07-13T16:12:01;0.25;0.25;0.00
67376;PMS7003;54261;46.086;6.588;2023-07-13T16:17:03;1.25;0.25;0.25
67376;PMS7003;54261;46.086;6.588;2023-07-13T16:22:14;0.00;0.00;0.00
67376;PMS7003;54261;46.086;6.588;2023-07-13T16:27:18;0.75;0.25;0.25
67376;PMS7003;54261;46.086;6.588;2023-07-13T16:32:20;0.50;0.50;0.50
67376;PMS7003;54261;46.086;6.588;2023-07-13T16:37:27;1.00;1.00;0.25
67376;PMS7003;54261;46.086;6.588;2023-07-13T16:42:30;0.50;0.50;0.00
67376;PMS7003;54261;46.086;6.588;2023-07-13T16:47:32;0.25;0.25;0.25
67376;PMS7003;54261;46.086;6.588;2023-07-13T16:52:35;1.50;0.50;0.50
67376;PMS7003;54261;46.086;6.588;2023-07-13T16:57:36;1.00;1.00;0.25
67376;PMS7003;54261;46.086;6.588;2023-07-13T17:02:40;0.50;0.50;0.50
67376;PMS7003;54261;46.086;6.588;2023-07-13T17:07:42;0.00;0.00;0.00
67376;PMS7003;54261;46.086;6.588;2023-07-13T17:12:45;0.25;0.25;0.25
67376;PMS7003;54261;46.086;6.588;2023-07-13T17:17:48;2.00;1.25;0.50
67376;PMS7003;54261;46.086;6.588;2023-07-13T17:22:53;2.00;2.00;2.00
67376;PMS7003;54261;46.086;6.588;2023-07-13T17:27:55;1.50;1.50;1.00
67376;PMS7003;54261;46.086;6.588;2023-07-13T17:32:57;0.75;0.75;0.25
67376;PMS7003;54261;46.086;6.588;2023-07-13T17:38:00;1.00;1.00;0.75
67376;PMS7003;54261;46.086;6.588;2023-07-13T17:43:04;1.75;1.75;1.25
67376;PMS7003;54261;46.086;6.588;2023-07-13T17:48:07;1.00;1.00;1.00
67376;PMS7003;54261;46.086;6.588;2023-07-13T17:53:19;1.00;1.00;1.00
67376;PMS7003;54261;46.086;6.588;2023-07-13T17:58:21;1.00;1.00;1.00
67376;PMS7003;54261;46.086;6.588;2023-07-13T18:03:25;1.00;1.00;1.00
67376;PMS7003;54261;46.086;6.588;2023-07-13T18:08:36;1.00;1.00;1.00
67376;PMS7003;54261;46.086;6.588;2023-07-13T18:13:37;1.33;1.33;1.33
67376;PMS7003;54261;46.086;6.588;2023-07-13T18:18:41;1.00;1.00;0.00
67376;PMS7003;54261;46.086;6.588;2023-07-13T18:23:45;1.00;1.00;1.00
67376;PMS7003;54261;46.086;6.588;2023-07-13T18:28:47;2.00;2.00;1.00
67376;PMS7003;54261;46.086;6.588;2023-07-13T18:33:50;1.25;1.25;1.25
67376;PMS7003;54261;46.086;6.588;2023-07-13T18:38:55;2.67;2.67;2.00
67376;PMS7003;54261;46.086;6.588;2023-07-13T18:43:57;0.33;0.33;0.33
67376;PMS7003;54261;46.086;6.588;2023-07-13T18:48:59;1.00;1.00;0.33
67376;PMS7003;54261;46.086;6.588;2023-07-13T18:54:01;1.33;1.33;1.33
67376;PMS7003;54261;46.086;6.588;2023-07-13T18:59:04;0.67;0.67;0.33
67376;PMS7003;54261;46.086;6.588;2023-07-13T19:04:23;2.00;2.00;1.00
67376;PMS7003;54261;46.086;6.588;2023-07-13T19:09:28;0.67;0.67;0.33
67376;PMS7003;54261;46.086;6.588;2023-07-13T19:14:30;1.00;1.00;1.00
67376;PMS7003;54261;46.086;6.588;2023-07-13T19:19:33;2.33;2.33;2.00
67376;PMS7003;54261;46.086;6.588;2023-07-13T19:24:35;1.00;1.00;1.00
67376;PMS7003;54261;46.086;6.588;2023-07-13T19:29:37;2.00;2.00;2.00
67376;PMS7003;54261;46.086;6.588;2023-07-13T19:34:40;2.00;2.00;2.00
67376;PMS7003;54261;46.086;6.588;2023-07-13T19:39:42;1.00;1.00;1.00
67376;PMS7003;54261;46.086;6.588;2023-07-13T19:44:44;1.00;1.00;1.00
67376;PMS7003;54261;46.086;6.588;2023-07-13T19:49:46;2.00;2.00;1.67
67376;PMS7003;54261;46.086;6.588;2023-07-13T19:54:49;2.00;2.00;2.00
67376;PMS7003;54261;46.086;6.588;2023-07-13T19:59:52;3.00;3.00;3.00
67376;PMS7003;54261;46.086;6.588;2023-07-13T20:04:55;3.00;2.00;1.67
67376;PMS7003;54261;46.086;6.588;2023-07-13T20:10:30;1.33;1.33;0.33
67376;PMS7003;54261;46.086;6.588;2023-07-13T20:15:31;2.33;2.33;2.00
67376;PMS7003;54261;46.086;6.588;2023-07-13T20:20:35;1.00;1.00;1.00
67376;PMS7003;54261;46.086;6.588;2023-07-13T20:25:40;2.67;2.67;2.00
67376;PMS7003;54261;46.086;6.588;2023-07-13T20:30:46;1.67;1.67;1.00
67376;PMS7003;54261;46.086;6.588;2023-07-13T20:35:49;1.00;1.00;1.00
67376;PMS7003;54261;46.086;6.588;2023-07-13T20:40:52;2.33;2.33;1.67
67376;PMS7003;54261;46.086;6.588;2023-07-13T20:45:58;3.00;3.00;2.00
67376;PMS7003;54261;46.086;6.588;2023-07-13T20:51:02;1.67;1.67;1.33
67376;PMS7003;54261;46.086;6.588;2023-07-13T20:56:09;2.67;2.67;2.67
67376;PMS7003;54261;46.086;6.588;2023-07-13T21:01:29;3.00;3.00;2.00
67376;PMS7003;54261;46.086;6.588;2023-07-13T21:06:34;1.67;1.67;1.33
67376;PMS7003;54261;46.086;6.588;2023-07-13T21:11:37;1.67;1.67;1.33
67376;PMS7003;54261;46.086;6.588;2023-07-13T21:16:39;2.00;2.00;1.00
67376;PMS7003;54261;46.086;6.588;2023-07-13T21:21:41;3.00;3.00;2.67
67376;PMS7003;54261;46.086;6.588;2023-07-13T21:26:43;3.33;1.67;1.67
67376;PMS7003;54261;46.086;6.588;2023-07-13T21:31:44;2.00;2.00;1.67
67376;PMS7003;54261;46.086;6.588;2023-07-13T21:36:46;1.67;1.67;1.67
67376;PMS7003;54261;46.086;6.588;2023-07-13T21:41:48;3.00;3.00;2.00
67376;PMS7003;54261;46.086;6.588;2023-07-13T21:46:50;3.33;2.00;1.00
67376;PMS7003;54261;46.086;6.588;2023-07-13T21:51:52;2.67;2.67;2.00
67376;PMS7003;54261;46.086;6.588;2023-07-13T21:56:54;2.67;2.67;1.67
67376;PMS7003;54261;46.086;6.588;2023-07-13T22:01:56;2.33;2.00;1.33
67376;PMS7003;54261;46.086;6.588;2023-07-13T22:06:58;3.67;3.67;2.00
67376;PMS7003;54261;46.086;6.588;2023-07-13T22:12:01;3.33;2.67;2.00
67376;PMS7003;54261;46.086;6.588;2023-07-13T22:17:04;3.00;3.00;2.00
67376;PMS7003;54261;46.086;6.588;2023-07-13T22:22:07;3.33;3.33;1.67
67376;PMS7003;54261;46.086;6.588;2023-07-13T22:27:09;6.00;4.00;4.00
67376;PMS7003;54261;46.086;6.588;2023-07-13T22:32:12;3.00;3.00;2.00
67376;PMS7003;54261;46.086;6.588;2023-07-13T22:37:14;2.67;2.67;2.33
67376;PMS7003;54261;46.086;6.588;2023-07-13T22:42:16;2.67;2.67;2.00
67376;PMS7003;54261;46.086;6.588;2023-07-13T22:47:17;2.00;2.00;2.00
67376;PMS7003;54261;46.086;6.588;2023-07-13T22:52:20;6.00;6.00;5.00
67376;PMS7003;54261;46.086;6.588;2023-07-13T22:57:22;5.33;4.33;3.67
67376;PMS7003;54261;46.086;6.588;2023-07-13T23:02:25;4.00;4.00;4.00
67376;PMS7003;54261;46.086;6.588;2023-07-13T23:07:27;3.00;3.00;2.00
67376;PMS7003;54261;46.086;6.588;2023-07-13T23:12:30;3.00;3.00;2.33
67376;PMS7003;54261;46.086;6.588;2023-07-13T23:17:32;3.00;3.00;3.00
67376;PMS7003;54261;46.086;6.588;2023-07-13T23:22:34;4.00;4.00;3.00
67376;PMS7003;54261;46.086;6.588;2023-07-13T23:27:36;4.33;3.00;3.00
67376;PMS7003;54261;46.086;6.588;2023-07-13T23:32:38;3.33;3.33;3.00
67376;PMS7003;54261;46.086;6.588;2023-07-13T23:37:40;4.00;4.00;3.00
67376;PMS7003;54261;46.086;6.588;2023-07-13T23:42:42;3.00;3.00;2.67
67376;PMS7003;54261;46.086;6.588;2023-07-13T23:47:46;2.67;2.67;2.00
67376;PMS7003;54261;46.086;6.588;2023-07-13T23:52:50;4.00;4.00;4.00
67376;PMS7003;54261;46.086;6.588;2023-07-13T23:57:56;4.67;4.67;4.00
